sensor_id;sensor_type;location;lat;lon;timestamp;pressure;altitude;pressure_sealevel;temperature;humidity
8416;BME280;4245;42.120;24.732;2023-02-21T00:01:26;99601.09;;;10.17;46.01
8416;BME280;4245;42.120;24.732;2023-02-21T00:04:10;99591.97;;;10.35;45.29
8416;BME280;4245;42.120;24.732;2023-02-21T00:06:54;99586.84;;;10.32;45.15
8416;BME280;4245;42.120;24.732;2023-02-21T00:09:39;99595.06;;;10.42;44.50
8416;BME280;4245;42.120;24.732;2023-02-21T00:12:24;99590.81;;;10.39;44.42
8416;BME280;4245;42.120;24.732;2023-02-21T00:15:09;99600.59;;;10.39;44.58
8416;BME280;4245;42.120;24.732;2023-02-21T00:17:54;99578.09;;;10.44;44.18
8416;BME280;4245;42.120;24.732;2023-02-21T00:20:38;99579.13;;;10.42;44.25
8416;BME280;4245;42.120;24.732;2023-02-21T00:23:22;99577.16;;;10.45;44.24
8416;BME280;4245;42.120;24.732;2023-02-21T00:26:07;99582.94;;;10.38;43.88
8416;BME280;4245;42.120;24.732;2023-02-21T00:28:51;99581.53;;;10.32;44.37
8416;BME280;4245;42.120;24.732;2023-02-21T00:31:35;99573.41;;;10.35;44.32
8416;BME280;4245;42.120;24.732;2023-02-21T00:34:19;99563.97;;;10.44;43.78
8416;BME280;4245;42.120;24.732;2023-02-21T00:37:03;99565.13;;;10.40;44.02
8416;BME280;4245;42.120;24.732;2023-02-21T00:39:47;99569.69;;;10.38;43.78
8416;BME280;4245;42.120;24.732;2023-02-21T00:42:33;99559.13;;;10.36;43.90
8416;BME280;4245;42.120;24.732;2023-02-21T00:45:17;99565.59;;;10.32;44.41
8416;BME280;4245;42.120;24.732;2023-02-21T00:48:01;99566.38;;;10.34;44.15
8416;BME280;4245;42.120;24.732;2023-02-21T00:50:45;99568.09;;;10.35;44.09
8416;BME280;4245;42.120;24.732;2023-02-21T00:53:29;99540.97;;;10.30;44.08
8416;BME280;4245;42.120;24.732;2023-02-21T00:56:13;99540.47;;;10.38;44.05
8416;BME280;4245;42.120;24.732;2023-02-21T00:58:59;99535.72;;;10.43;43.36
8416;BME280;4245;42.120;24.732;2023-02-21T01:01:43;99530.84;;;10.50;43.33
8416;BME280;4245;42.120;24.732;2023-02-21T01:04:27;99525.25;;;10.54;42.78
8416;BME280;4245;42.120;24.732;2023-02-21T01:07:11;99524.16;;;10.57;42.69
8416;BME280;4245;42.120;24.732;2023-02-21T01:09:55;99516.75;;;10.62;42.45
8416;BME280;4245;42.120;24.732;2023-02-21T01:12:39;99512.53;;;10.72;42.08
8416;BME280;4245;42.120;24.732;2023-02-21T01:15:25;99504.78;;;10.81;41.95
8416;BME280;4245;42.120;24.732;2023-02-21T01:18:09;99508.63;;;10.77;41.56
8416;BME280;4245;42.120;24.732;2023-02-21T01:20:53;99503.75;;;10.84;41.74
8416;BME280;4245;42.120;24.732;2023-02-21T01:23:37;99480.25;;;10.78;41.98
8416;BME280;4245;42.120;24.732;2023-02-21T01:26:21;99482.53;;;10.70;42.33
8416;BME280;4245;42.120;24.732;2023-02-21T01:29:05;99475.03;;;10.76;41.90
8416;BME280;4245;42.120;24.732;2023-02-21T01:31:50;99483.31;;;10.84;41.92
8416;BME280;4245;42.120;24.732;2023-02-21T01:34:35;99481.50;;;10.85;41.90
8416;BME280;4245;42.120;24.732;2023-02-21T01:37:19;99478.94;;;10.71;42.37
8416;BME280;4245;42.120;24.732;2023-02-21T01:40:03;99480.34;;;10.76;42.23
8416;BME280;4245;42.120;24.732;2023-02-21T01:42:47;99470.97;;;10.71;42.55
8416;BME280;4245;42.120;24.732;2023-02-21T01:45:52;99473.53;;;10.60;42.98
8416;BME280;4245;42.120;24.732;2023-02-21T01:48:39;99462.69;;;10.63;42.79
8416;BME280;4245;42.120;24.732;2023-02-21T01:51:27;99462.91;;;10.60;43.01
8416;BME280;4245;42.120;24.732;2023-02-21T01:54:14;99463.28;;;10.54;43.26
8416;BME280;4245;42.120;24.732;2023-02-21T01:57:01;99463.38;;;10.52;43.15
8416;BME280;4245;42.120;24.732;2023-02-21T01:59:46;99472.66;;;10.59;42.96
8416;BME280;4245;42.120;24.732;2023-02-21T02:02:36;99458.59;;;10.44;43.48
8416;BME280;4245;42.120;24.732;2023-02-21T02:05:22;99454.75;;;10.36;44.14
8416;BME280;4245;42.120;24.732;2023-02-21T02:08:08;99459.94;;;10.37;44.60
8416;BME280;4245;42.120;24.732;2023-02-21T02:11:00;99446.59;;;10.52;43.85
8416;BME280;4245;42.120;24.732;2023-02-21T02:14:08;99438.00;;;10.61;43.85
8416;BME280;4245;42.120;24.732;2023-02-21T02:16:43;99432.22;;;10.41;43.89
8416;BME280;4245;42.120;24.732;2023-02-21T02:19:42;99420.44;;;10.33;43.92
8416;BME280;4245;42.120;24.732;2023-02-21T02:22:42;99425.25;;;10.40;43.80
8416;BME280;4245;42.120;24.732;2023-02-21T02:25:24;99421.75;;;10.53;43.28
8416;BME280;4245;42.120;24.732;2023-02-21T02:28:06;99416.75;;;10.61;43.27
8416;BME280;4245;42.120;24.732;2023-02-21T02:30:56;99413.78;;;10.65;42.91
8416;BME280;4245;42.120;24.732;2023-02-21T02:34:01;99420.63;;;10.69;42.89
8416;BME280;4245;42.120;24.732;2023-02-21T02:36:38;99413.06;;;10.76;42.70
8416;BME280;4245;42.120;24.732;2023-02-21T02:39:16;99412.56;;;10.83;42.00
8416;BME280;4245;42.120;24.732;2023-02-21T02:41:48;99410.41;;;10.76;42.53
8416;BME280;4245;42.120;24.732;2023-02-21T02:44:20;99409.75;;;10.60;42.72
8416;BME280;4245;42.120;24.732;2023-02-21T02:46:52;99411.97;;;10.66;43.02
8416;BME280;4245;42.120;24.732;2023-02-21T02:49:23;99408.59;;;10.64;42.98
8416;BME280;4245;42.120;24.732;2023-02-21T02:51:53;99406.56;;;10.55;43.14
8416;BME280;4245;42.120;24.732;2023-02-21T02:54:20;99404.31;;;10.49;43.39
8416;BME280;4245;42.120;24.732;2023-02-21T02:56:47;99391.69;;;10.52;43.09
8416;BME280;4245;42.120;24.732;2023-02-21T02:59:17;99403.69;;;10.45;43.43
8416;BME280;4245;42.120;24.732;2023-02-21T03:01:56;99401.44;;;10.39;43.82
8416;BME280;4245;42.120;24.732;2023-02-21T03:04:47;99396.13;;;10.52;43.51
8416;BME280;4245;42.120;24.732;2023-02-21T03:07:22;99392.94;;;10.46;44.10
8416;BME280;4245;42.120;24.732;2023-02-21T03:10:01;99398.25;;;10.46;44.02
8416;BME280;4245;42.120;24.732;2023-02-21T03:12:35;99395.06;;;10.41;44.07
8416;BME280;4245;42.120;24.732;2023-02-21T03:15:09;99401.56;;;10.50;43.82
8416;BME280;4245;42.120;24.732;2023-02-21T03:17:40;99399.31;;;10.44;43.85
8416;BME280;4245;42.120;24.732;2023-02-21T03:20:10;99400.19;;;10.44;43.77
8416;BME280;4245;42.120;24.732;2023-02-21T03:22:42;99402.06;;;10.42;44.02
8416;BME280;4245;42.120;24.732;2023-02-21T03:25:11;99404.31;;;10.49;43.83
8416;BME280;4245;42.120;24.732;2023-02-21T03:27:40;99401.75;;;10.47;43.24
8416;BME280;4245;42.120;24.732;2023-02-21T03:30:09;99398.38;;;10.45;43.37
8416;BME280;4245;42.120;24.732;2023-02-21T03:32:39;99399.63;;;10.39;43.74
8416;BME280;4245;42.120;24.732;2023-02-21T03:35:06;99409.41;;;10.52;42.88
8416;BME280;4245;42.120;24.732;2023-02-21T03:37:35;99399.41;;;10.42;43.25
8416;BME280;4245;42.120;24.732;2023-02-21T03:40:09;99408.47;;;10.53;43.24
8416;BME280;4245;42.120;24.732;2023-02-21T03:42:37;99413.78;;;10.53;43.01
8416;BME280;4245;42.120;24.732;2023-02-21T03:45:04;99419.22;;;10.64;42.75
8416;BME280;4245;42.120;24.732;2023-02-21T03:47:31;99419.94;;;10.66;42.66
8416;BME280;4245;42.120;24.732;2023-02-21T03:49:58;99408.16;;;10.70;42.62
8416;BME280;4245;42.120;24.732;2023-02-21T03:52:25;99423.59;;;10.77;42.77
8416;BME280;4245;42.120;24.732;2023-02-21T03:54:51;99424.00;;;10.71;42.94
8416;BME280;4245;42.120;24.732;2023-02-21T03:57:20;99425.16;;;10.80;42.91
8416;BME280;4245;42.120;24.732;2023-02-21T03:59:46;99421.59;;;10.94;42.32
8416;BME280;4245;42.120;24.732;2023-02-21T04:02:13;99422.75;;;11.02;41.74
8416;BME280;4245;42.120;24.732;2023-02-21T04:04:40;99423.59;;;11.15;41.52
8416;BME280;4245;42.120;24.732;2023-02-21T04:07:08;99419.97;;;11.16;41.55
8416;BME280;4245;42.120;24.732;2023-02-21T04:09:35;99408.25;;;11.19;41.18
8416;BME280;4245;42.120;24.732;2023-02-21T04:12:03;99404.66;;;11.20;41.24
8416;BME280;4245;42.120;24.732;2023-02-21T04:14:31;99401.47;;;11.27;41.16
8416;BME280;4245;42.120;24.732;2023-02-21T04:16:58;99417.72;;;11.36;41.09
8416;BME280;4245;42.120;24.732;2023-02-21T04:19:25;99411.72;;;11.45;40.97
8416;BME280;4245;42.120;24.732;2023-02-21T04:21:52;99403.75;;;11.45;40.55
8416;BME280;4245;42.120;24.732;2023-02-21T04:24:19;99396.88;;;11.42;40.57
8416;BME280;4245;42.120;24.732;2023-02-21T04:26:45;99410.88;;;11.44;40.52
8416;BME280;4245;42.120;24.732;2023-02-21T04:29:12;99405.97;;;11.51;40.30
8416;BME280;4245;42.120;24.732;2023-02-21T04:31:40;99407.16;;;11.47;40.38
8416;BME280;4245;42.120;24.732;2023-02-21T04:34:07;99411.16;;;11.52;40.38
8416;BME280;4245;42.120;24.732;2023-02-21T04:36:34;99417.16;;;11.43;40.61
8416;BME280;4245;42.120;24.732;2023-02-21T04:39:02;99418.25;;;11.41;40.58
8416;BME280;4245;42.120;24.732;2023-02-21T04:41:29;99414.09;;;11.37;40.10
8416;BME280;4245;42.120;24.732;2023-02-21T04:43:56;99418.34;;;11.39;40.41
8416;BME280;4245;42.120;24.732;2023-02-21T04:46:23;99413.69;;;11.30;40.61
8416;BME280;4245;42.120;24.732;2023-02-21T04:48:52;99421.75;;;11.28;40.63
8416;BME280;4245;42.120;24.732;2023-02-21T04:51:21;99433.66;;;11.36;40.64
8416;BME280;4245;42.120;24.732;2023-02-21T04:53:49;99429.06;;;11.38;40.08
8416;BME280;4245;42.120;24.732;2023-02-21T04:56:18;99427.50;;;11.35;39.92
8416;BME280;4245;42.120;24.732;2023-02-21T04:58:45;99426.75;;;11.33;40.05
8416;BME280;4245;42.120;24.732;2023-02-21T05:01:13;99431.66;;;11.26;40.01
8416;BME280;4245;42.120;24.732;2023-02-21T05:03:40;99429.53;;;11.19;40.42
8416;BME280;4245;42.120;24.732;2023-02-21T05:06:08;99432.41;;;11.16;40.45
8416;BME280;4245;42.120;24.732;2023-02-21T05:08:35;99428.56;;;11.20;40.50
8416;BME280;4245;42.120;24.732;2023-02-21T05:11:02;99436.66;;;11.18;40.68
8416;BME280;4245;42.120;24.732;2023-02-21T05:13:29;99431.47;;;11.17;40.76
8416;BME280;4245;42.120;24.732;2023-02-21T05:15:56;99436.03;;;11.15;40.90
8416;BME280;4245;42.120;24.732;2023-02-21T05:18:23;99437.72;;;11.16;40.60
8416;BME280;4245;42.120;24.732;2023-02-21T05:20:53;99449.44;;;11.26;40.69
8416;BME280;4245;42.120;24.732;2023-02-21T05:23:22;99439.84;;;11.23;40.57
8416;BME280;4245;42.120;24.732;2023-02-21T05:26:00;99437.44;;;11.08;40.86
8416;BME280;4245;42.120;24.732;2023-02-21T05:28:28;99456.03;;;11.08;40.90
8416;BME280;4245;42.120;24.732;2023-02-21T05:30:55;99447.06;;;11.09;40.92
8416;BME280;4245;42.120;24.732;2023-02-21T05:33:23;99463.16;;;11.07;41.20
8416;BME280;4245;42.120;24.732;2023-02-21T05:35:50;99449.22;;;11.16;40.70
8416;BME280;4245;42.120;24.732;2023-02-21T05:38:18;99450.25;;;11.14;40.90
8416;BME280;4245;42.120;24.732;2023-02-21T05:40:47;99459.53;;;11.21;40.70
8416;BME280;4245;42.120;24.732;2023-02-21T05:43:14;99452.50;;;11.20;41.02
8416;BME280;4245;42.120;24.732;2023-02-21T05:45:41;99458.13;;;11.28;41.03
8416;BME280;4245;42.120;24.732;2023-02-21T05:48:08;99457.81;;;11.20;41.21
8416;BME280;4245;42.120;24.732;2023-02-21T05:50:35;99467.94;;;11.27;40.83
8416;BME280;4245;42.120;24.732;2023-02-21T05:53:04;99464.72;;;11.35;40.70
8416;BME280;4245;42.120;24.732;2023-02-21T05:55:31;99470.47;;;11.42;40.79
8416;BME280;4245;42.120;24.732;2023-02-21T05:57:59;99464.50;;;11.38;40.71
8416;BME280;4245;42.120;24.732;2023-02-21T06:00:28;99460.03;;;11.39;40.82
8416;BME280;4245;42.120;24.732;2023-02-21T06:02:55;99457.06;;;11.43;40.83
8416;BME280;4245;42.120;24.732;2023-02-21T06:05:23;99451.88;;;11.42;40.71
8416;BME280;4245;42.120;24.732;2023-02-21T06:07:50;99466.22;;;11.39;41.34
8416;BME280;4245;42.120;24.732;2023-02-21T06:10:18;99462.69;;;11.39;42.11
8416;BME280;4245;42.120;24.732;2023-02-21T06:12:45;99465.81;;;11.32;41.67
8416;BME280;4245;42.120;24.732;2023-02-21T06:15:13;99459.31;;;11.37;41.70
8416;BME280;4245;42.120;24.732;2023-02-21T06:17:41;99452.19;;;11.24;42.23
8416;BME280;4245;42.120;24.732;2023-02-21T06:20:10;99456.31;;;11.41;42.47
8416;BME280;4245;42.120;24.732;2023-02-21T06:22:38;99462.56;;;11.53;41.50
8416;BME280;4245;42.120;24.732;2023-02-21T06:25:06;99455.88;;;11.60;42.07
8416;BME280;4245;42.120;24.732;2023-02-21T06:27:33;99463.50;;;11.77;41.20
8416;BME280;4245;42.120;24.732;2023-02-21T06:30:00;99456.72;;;11.73;41.56
8416;BME280;4245;42.120;24.732;2023-02-21T06:32:28;99454.56;;;11.78;41.29
8416;BME280;4245;42.120;24.732;2023-02-21T06:34:55;99457.84;;;11.94;41.13
8416;BME280;4245;42.120;24.732;2023-02-21T06:37:22;99456.31;;;12.03;41.17
8416;BME280;4245;42.120;24.732;2023-02-21T06:39:49;99462.31;;;12.41;40.09
8416;BME280;4245;42.120;24.732;2023-02-21T06:42:16;99464.78;;;12.55;40.23
8416;BME280;4245;42.120;24.732;2023-02-21T06:44:43;99464.03;;;12.88;39.57
8416;BME280;4245;42.120;24.732;2023-02-21T06:47:11;99465.78;;;13.00;38.81
8416;BME280;4245;42.120;24.732;2023-02-21T06:49:39;99466.47;;;13.02;39.15
8416;BME280;4245;42.120;24.732;2023-02-21T06:52:06;99461.03;;;13.04;39.23
8416;BME280;4245;42.120;24.732;2023-02-21T06:54:33;99468.09;;;13.05;39.08
8416;BME280;4245;42.120;24.732;2023-02-21T06:57:00;99463.53;;;13.52;38.48
8416;BME280;4245;42.120;24.732;2023-02-21T06:59:27;99467.78;;;13.65;38.32
8416;BME280;4245;42.120;24.732;2023-02-21T07:01:54;99463.28;;;13.66;38.42
8416;BME280;4245;42.120;24.732;2023-02-21T07:04:21;99469.97;;;13.71;37.94
8416;BME280;4245;42.120;24.732;2023-02-21T07:06:49;99458.66;;;13.90;38.06
8416;BME280;4245;42.120;24.732;2023-02-21T07:09:16;99450.03;;;13.98;37.96
8416;BME280;4245;42.120;24.732;2023-02-21T07:11:43;99445.91;;;13.93;38.33
8416;BME280;4245;42.120;24.732;2023-02-21T07:14:11;99451.59;;;14.00;38.28
8416;BME280;4245;42.120;24.732;2023-02-21T07:16:38;99451.66;;;14.21;38.03
8416;BME280;4245;42.120;24.732;2023-02-21T07:19:05;99443.38;;;14.24;37.68
8416;BME280;4245;42.120;24.732;2023-02-21T07:21:32;99445.56;;;14.30;37.67
8416;BME280;4245;42.120;24.732;2023-02-21T07:24:00;99453.00;;;14.38;37.45
8416;BME280;4245;42.120;24.732;2023-02-21T07:26:27;99435.84;;;14.29;37.76
8416;BME280;4245;42.120;24.732;2023-02-21T07:28:53;99437.22;;;14.55;38.69
8416;BME280;4245;42.120;24.732;2023-02-21T07:31:20;99430.56;;;14.50;38.50
8416;BME280;4245;42.120;24.732;2023-02-21T07:33:47;99428.63;;;14.52;38.29
8416;BME280;4245;42.120;24.732;2023-02-21T07:36:14;99431.38;;;14.61;38.94
8416;BME280;4245;42.120;24.732;2023-02-21T07:38:41;99438.22;;;14.75;38.70
8416;BME280;4245;42.120;24.732;2023-02-21T07:41:09;99432.22;;;14.83;38.01
8416;BME280;4245;42.120;24.732;2023-02-21T07:43:36;99439.13;;;14.64;37.60
8416;BME280;4245;42.120;24.732;2023-02-21T07:46:03;99428.78;;;14.71;36.96
8416;BME280;4245;42.120;24.732;2023-02-21T07:48:30;99425.09;;;14.72;38.33
8416;BME280;4245;42.120;24.732;2023-02-21T07:50:57;99439.00;;;14.87;36.93
8416;BME280;4245;42.120;24.732;2023-02-21T07:53:24;99423.16;;;14.95;37.27
8416;BME280;4245;42.120;24.732;2023-02-21T07:55:50;99437.03;;;15.60;37.29
8416;BME280;4245;42.120;24.732;2023-02-21T07:58:19;99417.13;;;16.13;37.63
8416;BME280;4245;42.120;24.732;2023-02-21T08:00:45;99428.31;;;16.75;34.95
8416;BME280;4245;42.120;24.732;2023-02-21T08:03:13;99428.66;;;17.09;33.70
8416;BME280;4245;42.120;24.732;2023-02-21T08:05:39;99422.31;;;17.57;33.90
8416;BME280;4245;42.120;24.732;2023-02-21T08:08:07;99416.56;;;18.24;32.61
8416;BME280;4245;42.120;24.732;2023-02-21T08:10:34;99412.75;;;18.62;33.08
8416;BME280;4245;42.120;24.732;2023-02-21T08:13:01;99423.03;;;19.36;30.89
8416;BME280;4245;42.120;24.732;2023-02-21T08:15:30;99425.91;;;19.68;30.31
8416;BME280;4245;42.120;24.732;2023-02-21T08:17:56;99405.94;;;19.87;30.80
8416;BME280;4245;42.120;24.732;2023-02-21T08:20:23;99417.28;;;20.15;29.83
8416;BME280;4245;42.120;24.732;2023-02-21T08:22:50;99413.09;;;20.28;29.35
8416;BME280;4245;42.120;24.732;2023-02-21T08:25:17;99416.06;;;20.51;28.87
8416;BME280;4245;42.120;24.732;2023-02-21T08:27:44;99397.16;;;19.85;29.42
8416;BME280;4245;42.120;24.732;2023-02-21T08:30:13;99400.16;;;19.74;29.25
8416;BME280;4245;42.120;24.732;2023-02-21T08:32:41;99400.81;;;20.18;28.86
8416;BME280;4245;42.120;24.732;2023-02-21T08:35:13;99401.38;;;20.46;28.25
8416;BME280;4245;42.120;24.732;2023-02-21T08:37:43;99402.22;;;20.46;28.59
8416;BME280;4245;42.120;24.732;2023-02-21T08:40:10;99389.22;;;20.42;28.13
8416;BME280;4245;42.120;24.732;2023-02-21T08:42:38;99372.09;;;20.01;28.67
8416;BME280;4245;42.120;24.732;2023-02-21T08:45:06;99373.28;;;20.06;28.98
8416;BME280;4245;42.120;24.732;2023-02-21T08:47:35;99376.09;;;20.47;28.41
8416;BME280;4245;42.120;24.732;2023-02-21T08:50:04;99372.50;;;20.95;27.91
8416;BME280;4245;42.120;24.732;2023-02-21T08:52:31;99366.50;;;21.40;27.53
8416;BME280;4245;42.120;24.732;2023-02-21T08:54:58;99361.00;;;21.17;27.68
8416;BME280;4245;42.120;24.732;2023-02-21T08:57:25;99353.38;;;21.20;27.38
8416;BME280;4245;42.120;24.732;2023-02-21T08:59:52;99356.44;;;21.09;27.40
8416;BME280;4245;42.120;24.732;2023-02-21T09:02:20;99357.19;;;20.71;27.65
8416;BME280;4245;42.120;24.732;2023-02-21T09:04:47;99340.00;;;20.48;27.77
8416;BME280;4245;42.120;24.732;2023-02-21T09:07:17;99335.09;;;20.51;27.84
8416;BME280;4245;42.120;24.732;2023-02-21T09:09:44;99355.16;;;20.81;27.52
8416;BME280;4245;42.120;24.732;2023-02-21T09:12:12;99341.47;;;20.18;28.18
8416;BME280;4245;42.120;24.732;2023-02-21T09:14:40;99333.53;;;20.08;28.50
8416;BME280;4245;42.120;24.732;2023-02-21T09:17:09;99333.66;;;19.90;28.42
8416;BME280;4245;42.120;24.732;2023-02-21T09:19:36;99334.84;;;19.88;28.55
8416;BME280;4245;42.120;24.732;2023-02-21T09:22:05;99334.50;;;19.83;28.89
8416;BME280;4245;42.120;24.732;2023-02-21T09:24:33;99323.78;;;19.57;29.02
8416;BME280;4245;42.120;24.732;2023-02-21T09:27:00;99330.44;;;19.95;28.92
8416;BME280;4245;42.120;24.732;2023-02-21T09:29:29;99335.53;;;20.87;28.09
8416;BME280;4245;42.120;24.732;2023-02-21T09:31:56;99334.16;;;21.23;27.54
8416;BME280;4245;42.120;24.732;2023-02-21T09:34:23;99339.72;;;22.00;27.14
8416;BME280;4245;42.120;24.732;2023-02-21T09:36:50;99326.31;;;22.29;26.41
8416;BME280;4245;42.120;24.732;2023-02-21T09:39:17;99327.84;;;22.69;25.92
8416;BME280;4245;42.120;24.732;2023-02-21T09:41:45;99333.03;;;22.79;25.71
8416;BME280;4245;42.120;24.732;2023-02-21T09:44:15;99325.28;;;22.30;25.82
8416;BME280;4245;42.120;24.732;2023-02-21T09:46:44;99335.69;;;22.19;25.82
8416;BME280;4245;42.120;24.732;2023-02-21T09:49:16;99331.94;;;22.65;25.77
8416;BME280;4245;42.120;24.732;2023-02-21T09:51:47;99333.59;;;22.89;25.24
8416;BME280;4245;42.120;24.732;2023-02-21T09:54:25;99326.22;;;23.12;24.91
8416;BME280;4245;42.120;24.732;2023-02-21T09:56:55;99327.91;;;23.43;24.84
8416;BME280;4245;42.120;24.732;2023-02-21T09:59:24;99324.63;;;23.76;24.17
8416;BME280;4245;42.120;24.732;2023-02-21T10:02:02;99307.56;;;23.82;24.25
8416;BME280;4245;42.120;24.732;2023-02-21T10:04:52;99300.38;;;23.75;24.14
8416;BME280;4245;42.120;24.732;2023-02-21T10:07:24;99309.91;;;23.86;23.84
8416;BME280;4245;42.120;24.732;2023-02-21T10:09:54;99301.59;;;24.08;23.74
8416;BME280;4245;42.120;24.732;2023-02-21T10:12:28;99296.06;;;24.02;23.83
8416;BME280;4245;42.120;24.732;2023-02-21T10:15:10;99301.72;;;24.21;23.82
8416;BME280;4245;42.120;24.732;2023-02-21T10:17:44;99294.00;;;24.67;23.08
8416;BME280;4245;42.120;24.732;2023-02-21T10:20:20;99289.41;;;24.96;22.98
8416;BME280;4245;42.120;24.732;2023-02-21T10:22:49;99279.94;;;25.20;22.73
8416;BME280;4245;42.120;24.732;2023-02-21T10:25:21;99285.13;;;25.15;22.70
8416;BME280;4245;42.120;24.732;2023-02-21T10:27:51;99278.09;;;25.68;22.20
8416;BME280;4245;42.120;24.732;2023-02-21T10:30:25;99255.94;;;25.90;22.17
8416;BME280;4245;42.120;24.732;2023-02-21T10:32:53;99255.16;;;26.03;21.75
8416;BME280;4245;42.120;24.732;2023-02-21T10:35:20;99250.03;;;25.67;21.84
8416;BME280;4245;42.120;24.732;2023-02-21T10:37:49;99266.06;;;24.80;22.32
8416;BME280;4245;42.120;24.732;2023-02-21T10:40:26;99258.56;;;24.27;23.00
8416;BME280;4245;42.120;24.732;2023-02-21T10:43:01;99248.84;;;24.66;22.69
8416;BME280;4245;42.120;24.732;2023-02-21T10:45:33;99249.38;;;24.49;23.04
8416;BME280;4245;42.120;24.732;2023-02-21T10:48:03;99245.34;;;25.00;22.70
8416;BME280;4245;42.120;24.732;2023-02-21T10:50:48;99229.41;;;25.38;22.17
8416;BME280;4245;42.120;24.732;2023-02-21T10:53:25;99230.25;;;26.13;21.60
8416;BME280;4245;42.120;24.732;2023-02-21T10:56:18;99218.47;;;26.98;20.91
8416;BME280;4245;42.120;24.732;2023-02-21T10:58:48;99229.09;;;27.12;20.79
8416;BME280;4245;42.120;24.732;2023-02-21T11:01:17;99215.97;;;26.76;20.63
8416;BME280;4245;42.120;24.732;2023-02-21T11:03:48;99220.59;;;26.69;20.69
8416;BME280;4245;42.120;24.732;2023-02-21T11:06:26;99198.59;;;26.71;20.79
8416;BME280;4245;42.120;24.732;2023-02-21T11:08:57;99208.88;;;26.16;21.07
8416;BME280;4245;42.120;24.732;2023-02-21T11:11:33;99197.72;;;25.11;22.07
8416;BME280;4245;42.120;24.732;2023-02-21T11:14:20;99196.88;;;25.65;21.51
8416;BME280;4245;42.120;24.732;2023-02-21T11:19:48;99183.94;;;25.86;21.56
8416;BME280;4245;42.120;24.732;2023-02-21T11:22:18;99186.59;;;26.92;21.05
8416;BME280;4245;42.120;24.732;2023-02-21T11:24:52;99190.53;;;27.15;20.34
8416;BME280;4245;42.120;24.732;2023-02-21T11:27:21;99172.00;;;27.24;20.37
8416;BME280;4245;42.120;24.732;2023-02-21T11:29:50;99163.53;;;26.94;20.33
8416;BME280;4245;42.120;24.732;2023-02-21T11:32:25;99163.84;;;27.17;20.33
8416;BME280;4245;42.120;24.732;2023-02-21T11:35:00;99163.22;;;27.60;19.71
8416;BME280;4245;42.120;24.732;2023-02-21T11:37:28;99151.44;;;27.21;20.34
8416;BME280;4245;42.120;24.732;2023-02-21T11:39:56;99167.41;;;27.24;20.49
8416;BME280;4245;42.120;24.732;2023-02-21T11:42:27;99155.00;;;27.22;20.64
8416;BME280;4245;42.120;24.732;2023-02-21T11:45:10;99133.44;;;26.50;21.02
8416;BME280;4245;42.120;24.732;2023-02-21T11:47:45;99138.34;;;27.37;20.17
8416;BME280;4245;42.120;24.732;2023-02-21T11:50:20;99125.41;;;26.74;20.50
8416;BME280;4245;42.120;24.732;2023-02-21T11:52:53;99120.28;;;25.68;21.05
8416;BME280;4245;42.120;24.732;2023-02-21T11:55:24;99123.41;;;26.17;20.73
8416;BME280;4245;42.120;24.732;2023-02-21T11:58:00;99119.44;;;25.67;20.84
8416;BME280;4245;42.120;24.732;2023-02-21T12:00:37;99101.03;;;26.22;20.67
8416;BME280;4245;42.120;24.732;2023-02-21T12:03:33;99106.47;;;25.76;20.84
8416;BME280;4245;42.120;24.732;2023-02-21T12:06:05;99091.81;;;25.57;21.06
8416;BME280;4245;42.120;24.732;2023-02-21T12:08:43;99096.63;;;25.55;21.30
8416;BME280;4245;42.120;24.732;2023-02-21T12:11:27;99087.16;;;25.25;21.55
8416;BME280;4245;42.120;24.732;2023-02-21T12:14:07;99093.22;;;25.27;21.33
8416;BME280;4245;42.120;24.732;2023-02-21T12:16:44;99073.09;;;25.01;21.65
8416;BME280;4245;42.120;24.732;2023-02-21T12:19:24;99061.28;;;25.75;21.12
8416;BME280;4245;42.120;24.732;2023-02-21T12:22:03;99059.22;;;26.61;20.75
8416;BME280;4245;42.120;24.732;2023-02-21T12:24:43;99050.94;;;26.94;19.89
8416;BME280;4245;42.120;24.732;2023-02-21T12:27:16;99048.22;;;26.87;20.10
8416;BME280;4245;42.120;24.732;2023-02-21T12:29:53;99049.19;;;27.37;18.85
8416;BME280;4245;42.120;24.732;2023-02-21T12:32:39;99022.91;;;27.43;18.44
8416;BME280;4245;42.120;24.732;2023-02-21T12:38:12;99030.72;;;27.39;18.47
8416;BME280;4245;42.120;24.732;2023-02-21T12:40:46;99032.78;;;27.44;18.69
8416;BME280;4245;42.120;24.732;2023-02-21T12:43:27;99028.66;;;27.59;18.10
8416;BME280;4245;42.120;24.732;2023-02-21T12:46:02;99036.16;;;27.39;18.05
8416;BME280;4245;42.120;24.732;2023-02-21T12:48:39;99034.44;;;27.45;18.62
8416;BME280;4245;42.120;24.732;2023-02-21T12:51:09;99024.78;;;27.49;18.05
8416;BME280;4245;42.120;24.732;2023-02-21T12:53:42;99046.50;;;27.62;17.61
8416;BME280;4245;42.120;24.732;2023-02-21T12:56:13;99038.34;;;27.80;17.61
8416;BME280;4245;42.120;24.732;2023-02-21T12:58:46;99032.72;;;27.75;17.18
8416;BME280;4245;42.120;24.732;2023-02-21T13:01:17;99025.31;;;27.64;17.08
8416;BME280;4245;42.120;24.732;2023-02-21T13:03:54;99022.34;;;27.84;16.86
8416;BME280;4245;42.120;24.732;2023-02-21T13:06:28;99009.88;;;27.94;17.28
8416;BME280;4245;42.120;24.732;2023-02-21T13:09:05;99008.50;;;27.85;16.85
8416;BME280;4245;42.120;24.732;2023-02-21T13:11:36;99030.09;;;27.69;17.20
8416;BME280;4245;42.120;24.732;2023-02-21T13:14:09;99018.22;;;27.56;17.18
8416;BME280;4245;42.120;24.732;2023-02-21T13:16:37;99017.22;;;27.94;17.10
8416;BME280;4245;42.120;24.732;2023-02-21T13:19:08;99013.28;;;28.08;16.92
8416;BME280;4245;42.120;24.732;2023-02-21T13:21:50;99012.22;;;27.91;16.85
8416;BME280;4245;42.120;24.732;2023-02-21T13:24:42;99026.09;;;27.40;17.61
8416;BME280;4245;42.120;24.732;2023-02-21T13:30:22;99020.94;;;27.56;17.35
8416;BME280;4245;42.120;24.732;2023-02-21T13:32:52;99017.31;;;27.31;17.63
8416;BME280;4245;42.120;24.732;2023-02-21T13:35:26;99013.44;;;27.52;17.54
8416;BME280;4245;42.120;24.732;2023-02-21T13:37:55;99032.47;;;27.58;17.31
8416;BME280;4245;42.120;24.732;2023-02-21T13:40:24;99013.41;;;26.82;18.40
8416;BME280;4245;42.120;24.732;2023-02-21T13:43:00;99017.03;;;27.14;18.02
8416;BME280;4245;42.120;24.732;2023-02-21T13:45:28;99016.09;;;27.27;18.09
8416;BME280;4245;42.120;24.732;2023-02-21T13:48:29;99011.47;;;27.28;17.64
8416;BME280;4245;42.120;24.732;2023-02-21T13:50:58;99004.84;;;27.17;17.83